createdAt,value
2022-08-19T00:02:22.675Z,95388.91
2022-08-19T00:04:53.669Z,95388.59
2022-08-19T00:07:23.723Z,95387.97
2022-08-19T00:09:51.867Z,95384.94
2022-08-19T00:12:20.920Z,95388.44
2022-08-19T00:14:49.095Z,95392.59
2022-08-19T00:17:17.256Z,95376.34
2022-08-19T00:19:45.384Z,95378.25
2022-08-19T00:22:13.903Z,95362.13
2022-08-19T00:24:50.857Z,95349.03
2022-08-19T00:27:26.365Z,95332.31
2022-08-19T00:29:55.353Z,95326.88
2022-08-19T00:32:23.827Z,95319.09
2022-08-19T00:34:54.538Z,95320.22
2022-08-19T00:37:24.151Z,95306.88
2022-08-19T00:39:53.802Z,95301.78
2022-08-19T00:42:22.202Z,95303.69
2022-08-19T00:44:51.425Z,95298.75
2022-08-19T00:47:19.539Z,95296.34
2022-08-19T00:49:51.714Z,95298.94
2022-08-19T00:52:22.088Z,95308.47
2022-08-19T00:54:52.638Z,95297.63
2022-08-19T00:57:25.124Z,95291.78
2022-08-19T01:00:01.879Z,95291.94
2022-08-19T01:02:31.453Z,95297.63
2022-08-19T01:04:59.914Z,95298.00
2022-08-19T01:07:28.111Z,95291.00
2022-08-19T01:10:03.992Z,95283.78
2022-08-19T01:12:33.623Z,95284.25
2022-08-19T01:15:01.853Z,95283.78
2022-08-19T01:17:30.154Z,95279.03
2022-08-19T01:19:58.954Z,95278.66
2022-08-19T01:22:33.906Z,95275.16
2022-08-19T01:25:02.450Z,95268.19
2022-08-19T01:27:43.068Z,95268.19
2022-08-19T01:30:14.298Z,95271.34
2022-08-19T01:32:44.334Z,95268.00
2022-08-19T01:35:13.025Z,95274.22
2022-08-19T01:37:47.094Z,95283.97
2022-08-19T01:40:15.361Z,95278.09
2022-08-19T01:42:43.555Z,95273.47
2022-08-19T01:45:12.193Z,95278.44
2022-08-19T01:47:40.572Z,95268.84
2022-08-19T01:50:09.778Z,95269.31
2022-08-19T01:52:38.016Z,95265.34
2022-08-19T01:55:09.223Z,95280.66
2022-08-19T01:57:37.419Z,95271.41
2022-08-19T02:00:06.850Z,95287.34
2022-08-19T02:02:39.467Z,95293.88
2022-08-19T02:05:11.310Z,95289.16
2022-08-19T02:07:41.421Z,95287.56
2022-08-19T02:10:13.815Z,95282.59
2022-08-19T02:12:45.193Z,95283.38
2022-08-19T02:15:13.437Z,95290.84
2022-08-19T02:17:41.602Z,95295.00
2022-08-19T02:20:10.927Z,95291.88
2022-08-19T02:22:39.853Z,95293.88
2022-08-19T02:25:08.415Z,95301.22
2022-08-19T02:27:38.175Z,95314.13
2022-08-19T02:30:14.151Z,95316.03
2022-08-19T02:32:44.553Z,95321.00
2022-08-19T02:35:13.583Z,95316.25
2022-08-19T02:37:59.661Z,95320.19
2022-08-19T02:40:28.207Z,95326.41
2022-08-19T02:42:58.343Z,95331.19
2022-08-19T02:45:26.463Z,95333.09
2022-08-19T02:47:54.642Z,95343.28
2022-08-19T02:50:22.755Z,95340.56
2022-08-19T02:52:51.299Z,95330.16
2022-08-19T02:55:19.837Z,95331.66
2022-08-19T02:57:47.982Z,95334.47
2022-08-19T03:00:17.971Z,95341.19
2022-08-19T03:02:47.152Z,95334.63
2022-08-19T03:05:15.394Z,95337.03
2022-08-19T03:07:43.519Z,95341.66
2022-08-19T03:10:11.609Z,95348.31
2022-08-19T03:12:39.870Z,95359.50
2022-08-19T03:15:08.554Z,95364.13
2022-08-19T03:17:38.120Z,95367.63
2022-08-19T03:20:07.246Z,95372.59
2022-08-19T03:22:35.404Z,95366.19
2022-08-19T03:25:03.507Z,95366.19
2022-08-19T03:27:34.334Z,95364.28
2022-08-19T03:30:03.587Z,95370.19
2022-08-19T03:32:33.867Z,95381.03
2022-08-19T03:35:04.957Z,95374.31
2022-08-19T03:37:33.053Z,95375.44
2022-08-19T03:40:01.210Z,95375.13
2022-08-19T03:42:38.330Z,95368.28
2022-08-19T03:45:17.758Z,95371.78
2022-08-19T03:47:46.440Z,95368.28
2022-08-19T03:50:16.049Z,95376.88
2022-08-19T03:52:45.366Z,95377.69
2022-08-19T03:55:15.327Z,95379.44
2022-08-19T03:57:43.485Z,95373.88
2022-08-19T04:00:14.138Z,95365.63
2022-08-19T04:02:42.946Z,95370.72
2022-08-19T04:05:28.559Z,95357.81
2022-08-19T04:07:58.121Z,95351.91
2022-08-19T04:10:26.320Z,95358.81
2022-08-19T04:12:54.687Z,95356.91
2022-08-19T04:15:23.226Z,95359.94
2022-08-19T04:17:51.397Z,95366.94
2022-08-19T04:20:19.597Z,95362.75
2022-08-19T04:22:49.225Z,95357.34
2022-08-19T04:25:17.583Z,95350.81
2022-08-19T04:27:47.347Z,95347.63
2022-08-19T04:30:16.149Z,95347.63
2022-08-19T04:32:44.714Z,95341.41
2022-08-19T04:35:17.516Z,95341.09
2022-08-19T04:37:48.140Z,95350.34
2022-08-19T04:40:34.235Z,95347.63
2022-08-19T04:43:03.076Z,95349.09
2022-08-19T04:45:36.257Z,95338.59
2022-08-19T04:48:27.386Z,95347.50
2022-08-19T04:50:58.520Z,95341.41
2022-08-19T04:53:29.678Z,95342.19
2022-08-19T04:56:08.005Z,95339.06
2022-08-19T04:58:37.180Z,95352.13
2022-08-19T05:01:05.409Z,95353.72
2022-08-19T05:03:34.583Z,95352.59
2022-08-19T05:06:08.416Z,95346.06
2022-08-19T05:08:38.282Z,95355.63
2022-08-19T05:11:10.788Z,95361.38
2022-08-19T05:13:43.365Z,95374.28
2022-08-19T05:16:11.629Z,95382.41
2022-08-19T05:18:57.555Z,95382.41
2022-08-19T05:21:42.838Z,95380.81
2022-08-19T05:24:12.362Z,95382.41
2022-08-19T05:26:40.852Z,95385.91
2022-08-19T05:29:09.571Z,95394.50
2022-08-19T05:31:39.425Z,95398.31
2022-08-19T05:34:18.279Z,95410.63
2022-08-19T05:36:48.692Z,95411.28
2022-08-19T05:39:21.374Z,95426.41
2022-08-19T05:41:50.918Z,95432.63
2022-08-19T05:44:19.197Z,95441.22
2022-08-19T05:46:48.264Z,95441.69
2022-08-19T05:49:16.735Z,95443.25
2022-08-19T05:51:45.527Z,95446.78
2022-08-19T05:54:14.464Z,95448.69
2022-08-19T05:56:44.000Z,95454.09
2022-08-19T05:59:12.393Z,95459.09
2022-08-19T06:01:41.294Z,95454.91
2022-08-19T06:04:09.460Z,95455.69
2022-08-19T06:06:37.767Z,95458.88
2022-08-19T06:09:06.482Z,95468.59
2022-08-19T06:11:35.894Z,95467.94
2022-08-19T06:14:09.578Z,95486.25
2022-08-19T06:16:44.773Z,95477.50
2022-08-19T06:19:14.277Z,95485.00
2022-08-19T06:21:44.424Z,95479.09
2022-08-19T06:24:13.843Z,95482.44
2022-08-19T06:26:43.328Z,95488.50
2022-08-19T06:29:23.709Z,95487.81
2022-08-19T06:31:53.602Z,95494.34
2022-08-19T06:34:22.037Z,95486.69
2022-08-19T06:36:52.193Z,95481.28
2022-08-19T06:39:21.951Z,95475.53
2022-08-19T06:41:58.167Z,95470.25
2022-08-19T06:44:39.100Z,95469.47
2022-08-19T06:47:14.769Z,95481.09
2022-08-19T06:49:43.326Z,95486.53
2022-08-19T06:52:14.202Z,95479.50
2022-08-19T06:54:56.044Z,95486.19
2022-08-19T06:57:25.004Z,95478.06
2022-08-19T06:59:56.391Z,95482.41
2022-08-19T07:02:27.319Z,95481.28
2022-08-19T07:04:56.843Z,95488.28
2022-08-19T07:07:25.804Z,95490.84
2022-08-19T07:09:59.885Z,95491.66
2022-08-19T07:12:30.360Z,95495.50
2022-08-19T07:15:00.873Z,95498.22
2022-08-19T07:17:29.557Z,95501.25
2022-08-19T07:20:04.990Z,95507.78
2022-08-19T07:22:35.099Z,95507.91
2022-08-19T07:25:04.772Z,95504.88
2022-08-19T07:27:33.788Z,95504.41
2022-08-19T07:30:03.512Z,95504.41
2022-08-19T07:32:32.608Z,95505.19
2022-08-19T07:35:01.650Z,95511.56
2022-08-19T07:37:33.145Z,95511.25
2022-08-19T07:40:01.948Z,95517.78
2022-08-19T07:42:31.112Z,95519.06
2022-08-19T07:44:59.586Z,95527.50
2022-08-19T07:47:47.732Z,95522.09
2022-08-19T07:50:16.916Z,95523.69
2022-08-19T07:52:48.749Z,95533.25
2022-08-19T07:55:41.182Z,95524.66
2022-08-19T07:58:08.284Z,95531.00
2022-08-19T08:00:36.978Z,95530.97
2022-08-19T08:03:06.584Z,95540.81
2022-08-19T08:05:52.563Z,95537.28
2022-08-19T08:08:37.343Z,95541.16
2022-08-19T08:11:12.826Z,95540.81
2022-08-19T08:13:44.282Z,95538.25
2022-08-19T08:16:14.130Z,95521.31
2022-08-19T08:18:50.646Z,95522.28
2022-08-19T08:21:21.452Z,95535.06
2022-08-19T08:23:51.072Z,95539.03
2022-08-19T08:26:20.315Z,95541.44
2022-08-19T08:28:49.473Z,95539.97
2022-08-19T08:31:19.603Z,95537.72
2022-08-19T08:33:49.740Z,95532.44
2022-08-19T08:36:18.318Z,95531.50
2022-08-19T08:38:47.459Z,95532.75
2022-08-19T08:41:21.451Z,95527.97
2022-08-19T08:43:52.118Z,95525.28
2022-08-19T08:46:30.850Z,95531.50
2022-08-19T08:49:04.786Z,95537.06
2022-08-19T08:51:36.034Z,95527.81
2022-08-19T08:54:04.907Z,95532.75
2022-08-19T08:56:33.505Z,95530.97
2022-08-19T08:59:04.908Z,95537.22
2022-08-19T09:01:33.194Z,95531.78
2022-08-19T09:04:04.761Z,95533.81
2022-08-19T09:06:37.951Z,95535.63
2022-08-19T09:09:16.201Z,95531.91
2022-08-19T09:11:52.991Z,95539.38
2022-08-19T09:14:51.216Z,95536.34
2022-08-19T09:17:21.994Z,95537.00
2022-08-19T09:19:56.315Z,95530.13
2022-08-19T09:22:25.796Z,95543.38
2022-08-19T09:24:55.505Z,95536.34
2022-08-19T09:27:41.929Z,95530.78
2022-08-19T09:30:14.588Z,95538.44
2022-08-19T09:32:44.468Z,95538.31
2022-08-19T09:35:14.997Z,95545.47
2022-08-19T09:37:43.731Z,95539.59
2022-08-19T09:40:13.457Z,95537.78
2022-08-19T09:42:49.950Z,95542.91
2022-08-19T09:45:22.971Z,95535.88
2022-08-19T09:47:54.367Z,95541.78
2022-08-19T09:50:24.298Z,95548.09
2022-08-19T09:52:55.227Z,95542.69
2022-08-19T09:55:31.827Z,95541.69
2022-08-19T09:58:02.742Z,95547.94
2022-08-19T10:00:31.756Z,95549.19
2022-08-19T10:02:59.867Z,95544.09
2022-08-19T10:05:48.733Z,95545.13
2022-08-19T10:08:17.796Z,95552.34
2022-08-19T10:10:47.062Z,95560.81
2022-08-19T10:13:15.728Z,95555.91
2022-08-19T10:15:47.701Z,95550.22
2022-08-19T10:18:16.704Z,95562.19
2022-08-19T10:20:51.327Z,95570.25
2022-08-19T10:23:19.759Z,95569.94
2022-08-19T10:25:48.253Z,95562.06
2022-08-19T10:28:16.462Z,95569.53
2022-08-19T10:30:47.852Z,95564.84
2022-08-19T10:33:27.061Z,95563.88
2022-08-19T10:36:06.974Z,95563.66
2022-08-19T10:38:36.472Z,95561.91
2022-08-19T10:41:12.079Z,95562.69
2022-08-19T10:43:40.931Z,95568.91
2022-08-19T10:46:14.238Z,95576.84
2022-08-19T10:48:45.050Z,95581.34
2022-08-19T10:51:44.600Z,95569.16
2022-08-19T10:54:16.141Z,95575.94
2022-08-19T10:56:56.162Z,95580.78
2022-08-19T10:59:31.428Z,95578.59
2022-08-19T11:02:02.766Z,95570.78
2022-08-19T11:04:31.304Z,95574.47
2022-08-19T11:07:04.643Z,95563.28
2022-08-19T11:09:34.356Z,95565.88
2022-08-19T11:12:04.868Z,95574.38
2022-08-19T11:14:34.866Z,95568.03
2022-08-19T11:17:03.576Z,95573.00
2022-08-19T11:19:31.970Z,95564.72
2022-08-19T11:22:03.792Z,95558.50
2022-08-19T11:24:34.175Z,95565.72
2022-08-19T11:27:08.354Z,95569.38
2022-08-19T11:29:37.364Z,95574.78
2022-08-19T11:32:09.953Z,95573.19
2022-08-19T11:34:38.390Z,95569.81
2022-08-19T11:37:09.693Z,95570.81
2022-08-19T11:39:38.258Z,95581.41
2022-08-19T11:42:27.536Z,95573.66
2022-08-19T11:44:55.976Z,95573.69
2022-08-19T11:47:24.461Z,95575.94
2022-08-19T11:49:52.794Z,95582.28
2022-08-19T11:52:22.686Z,95588.66
2022-08-19T11:54:50.949Z,95594.53
2022-08-19T11:57:20.840Z,95594.88
2022-08-19T11:59:52.590Z,95595.25
2022-08-19T12:02:20.999Z,95589.03
2022-08-19T12:04:49.302Z,95596.22
2022-08-19T12:07:17.624Z,95591.31
2022-08-19T12:09:48.742Z,95601.22
2022-08-19T12:12:22.836Z,95601.72
2022-08-19T12:14:57.546Z,95598.50
2022-08-19T12:17:26.193Z,95609.84
2022-08-19T12:19:54.616Z,95606.34
2022-08-19T12:22:23.001Z,95614.16
2022-08-19T12:24:54.310Z,95616.38
2022-08-19T12:27:31.881Z,95619.78
2022-08-19T12:30:04.330Z,95616.59
2022-08-19T12:32:32.614Z,95623.13
2022-08-19T12:35:00.926Z,95616.75
2022-08-19T12:37:32.670Z,95614.03
2022-08-19T12:40:03.201Z,95630.28
2022-08-19T12:42:31.789Z,95625.03
2022-08-19T12:45:00.045Z,95622.00
2022-08-19T12:47:28.635Z,95625.31
2022-08-19T12:49:57.634Z,95627.53
2022-08-19T12:52:26.367Z,95612.56
2022-08-19T12:54:55.551Z,95614.31
2022-08-19T12:57:31.906Z,95612.19
2022-08-19T13:00:05.309Z,95608.81
2022-08-19T13:02:38.528Z,95609.41
2022-08-19T13:05:12.326Z,95603.19
2022-08-19T13:07:41.061Z,95599.03
2022-08-19T13:10:10.586Z,95599.34
2022-08-19T13:12:40.321Z,95600.13
2022-08-19T13:15:10.911Z,95591.53
2022-08-19T13:17:40.000Z,95602.22
2022-08-19T13:20:09.817Z,95595.03
2022-08-19T13:22:38.102Z,95589.28
2022-08-19T13:25:07.556Z,95589.28
2022-08-19T13:27:35.808Z,95604.13
2022-08-19T13:30:24.092Z,95609.56
2022-08-19T13:33:09.486Z,95598.75
2022-08-19T13:35:37.789Z,95610.13
2022-08-19T13:38:11.740Z,95611.88
2022-08-19T13:40:41.317Z,95613.00
2022-08-19T13:43:17.810Z,95612.19
2022-08-19T13:45:57.739Z,95607.78
2022-08-19T13:48:27.494Z,95608.56
2022-08-19T13:50:56.052Z,95603.28
2022-08-19T13:53:24.687Z,95609.16
2022-08-19T13:55:54.701Z,95598.00
2022-08-19T13:58:23.346Z,95602.31
2022-08-19T14:00:53.613Z,95594.75
2022-08-19T14:03:22.003Z,95602.84
2022-08-19T14:05:50.242Z,95597.72
2022-08-19T14:08:18.571Z,95597.25
2022-08-19T14:10:46.953Z,95600.56
2022-08-19T14:13:16.085Z,95614.75
2022-08-19T14:15:44.601Z,95616.00
2022-08-19T14:18:14.311Z,95605.09
2022-08-19T14:20:42.673Z,95594.06
2022-08-19T14:23:11.047Z,95589.53
2022-08-19T14:25:39.315Z,95599.41
2022-08-19T14:28:09.087Z,95609.22
2022-08-19T14:30:38.740Z,95600.34
2022-08-19T14:33:08.124Z,95603.16
2022-08-19T14:35:37.793Z,95601.72
2022-08-19T14:38:06.212Z,95592.78
2022-08-19T14:40:34.624Z,95597.28
2022-08-19T14:43:05.251Z,95599.38
2022-08-19T14:45:34.198Z,95600.84
2022-08-19T14:48:02.703Z,95602.31
2022-08-19T14:50:31.254Z,95602.00
2022-08-19T14:53:08.186Z,95599.66
2022-08-19T14:55:43.791Z,95600.94
2022-08-19T14:58:28.833Z,95593.47
2022-08-19T15:00:58.811Z,95597.31
2022-08-19T15:03:27.352Z,95608.00
2022-08-19T15:05:56.613Z,95608.03
2022-08-19T15:08:27.093Z,95607.09
2022-08-19T15:10:55.720Z,95610.59
2022-08-19T15:13:24.955Z,95603.94
2022-08-19T15:15:55.269Z,95601.88
2022-08-19T15:18:23.597Z,95596.44
2022-08-19T15:20:52.854Z,95598.84
2022-08-19T15:23:22.843Z,95601.41
2022-08-19T15:25:59.079Z,95595.03
2022-08-19T15:28:29.963Z,95595.69
2022-08-19T15:31:02.183Z,95595.50
2022-08-19T15:33:33.389Z,95599.81
2022-08-19T15:36:01.731Z,95594.22
2022-08-19T15:38:34.441Z,95595.38
2022-08-19T15:41:20.192Z,95593.63
2022-08-19T15:43:53.533Z,95591.88
2022-08-19T15:46:41.430Z,95596.97
2022-08-19T15:49:09.843Z,95591.56
2022-08-19T15:51:39.316Z,95601.78
2022-08-19T15:54:09.742Z,95597.50
2022-08-19T15:56:58.472Z,95605.63
2022-08-19T15:59:47.524Z,95612.94
2022-08-19T16:02:34.177Z,95615.19
2022-08-19T16:05:24.662Z,95618.03
2022-08-19T16:07:52.880Z,95605.94
2022-08-19T16:10:27.120Z,95606.56
2022-08-19T16:16:47.823Z,95605.47
2022-08-19T16:19:17.278Z,95602.78
2022-08-19T16:21:46.123Z,95602.47
2022-08-19T16:24:16.257Z,95608.84
2022-08-19T16:26:44.955Z,95603.91
2022-08-19T16:29:22.150Z,95608.53
2022-08-19T16:32:04.148Z,95595.66
2022-08-19T16:34:34.881Z,95603.47
2022-08-19T16:37:03.211Z,95613.50
2022-08-19T16:39:33.809Z,95619.88
2022-08-19T16:42:02.410Z,95623.06
2022-08-19T16:44:30.765Z,95615.72
2022-08-19T16:46:59.735Z,95612.06
2022-08-19T16:49:52.189Z,95621.31
2022-08-19T16:52:20.225Z,95615.88
2022-08-19T16:54:48.689Z,95617.47
2022-08-19T16:57:17.293Z,95614.13
2022-08-19T16:59:49.204Z,95612.72
2022-08-19T17:02:18.338Z,95615.06
2022-08-19T17:04:58.318Z,95604.91
2022-08-19T17:07:27.993Z,95611.13
2022-08-19T17:09:56.741Z,95608.41
2022-08-19T17:12:30.260Z,95620.34
2022-08-19T17:15:00.842Z,95616.22
2022-08-19T17:17:29.797Z,95616.53
2022-08-19T17:20:00.522Z,95622.75
2022-08-19T17:22:28.936Z,95624.34
2022-08-19T17:24:58.212Z,95625.59
2022-08-19T17:27:32.058Z,95618.56
2022-08-19T17:30:02.647Z,95617.47
2022-08-19T17:32:32.586Z,95614.44
2022-08-19T17:35:02.428Z,95620.66
2022-08-19T17:37:31.058Z,95617.47
2022-08-19T17:39:59.336Z,95615.06
2022-08-19T17:42:28.058Z,95617.31
2022-08-19T17:44:59.542Z,95617.63
2022-08-19T17:47:28.495Z,95625.44
2022-08-19T17:49:56.858Z,95622.25
2022-08-19T17:52:26.853Z,95617.97
2022-08-19T17:54:55.162Z,95623.38
2022-08-19T17:57:23.493Z,95629.91
2022-08-19T17:59:51.973Z,95627.38
2022-08-19T18:02:21.904Z,95624.66
2022-08-19T18:04:52.808Z,95630.88
2022-08-19T18:07:22.125Z,95630.41
2022-08-19T18:09:52.919Z,95630.72
2022-08-19T18:12:27.362Z,95638.84
2022-08-19T18:14:56.112Z,95637.56
2022-08-19T18:17:26.092Z,95638.34
2022-08-19T18:19:54.960Z,95645.69
2022-08-19T18:22:26.331Z,95639.00
2022-08-19T18:24:57.201Z,95633.75
2022-08-19T18:27:25.747Z,95641.69
2022-08-19T18:29:56.770Z,95640.59
2022-08-19T18:32:26.440Z,95652.53
2022-08-19T18:34:54.946Z,95657.19
2022-08-19T18:37:23.326Z,95656.69
2022-08-19T18:40:09.037Z,95655.41
2022-08-19T18:43:00.092Z,95641.06
2022-08-19T18:45:45.731Z,95648.88
2022-08-19T18:48:32.064Z,95645.06
2022-08-19T18:51:01.074Z,95644.59
2022-08-19T18:53:30.436Z,95646.81
2022-08-19T18:55:58.653Z,95653.81
2022-08-19T18:58:34.041Z,95663.06
2022-08-19T19:01:04.400Z,95682.00
2022-08-19T19:03:32.799Z,95682.66
2022-08-19T19:06:01.543Z,95681.88
2022-08-19T19:08:29.827Z,95679.47
2022-08-19T19:10:59.055Z,95671.34
2022-08-19T19:13:30.105Z,95667.03
2022-08-19T19:15:59.990Z,95672.47
2022-08-19T19:18:28.514Z,95668.94
2022-08-19T19:20:57.013Z,95667.66
2022-08-19T19:23:27.349Z,95674.19
2022-08-19T19:25:56.360Z,95687.41
2022-08-19T19:28:25.789Z,95693.94
2022-08-19T19:30:57.693Z,95693.81
2022-08-19T19:33:26.250Z,95694.59
2022-08-19T19:35:54.709Z,95685.03
2022-08-19T19:38:23.007Z,95674.19
2022-08-19T19:40:51.607Z,95677.56
2022-08-19T19:43:19.879Z,95680.59
2022-08-19T19:45:49.244Z,95682.50
2022-08-19T19:48:19.264Z,95693.94
2022-08-19T19:50:53.893Z,95686.91
2022-08-19T19:53:24.891Z,95693.41
2022-08-19T19:55:55.302Z,95692.47
2022-08-19T19:58:28.829Z,95685.16
2022-08-19T20:00:59.164Z,95676.72
2022-08-19T20:03:30.128Z,95668.94
2022-08-19T20:05:59.544Z,95666.53
2022-08-19T20:08:45.975Z,95667.94
2022-08-19T20:11:17.934Z,95663.97
2022-08-19T20:13:46.247Z,95658.91
2022-08-19T20:16:14.669Z,95659.66
2022-08-19T20:18:44.560Z,95665.06
2022-08-19T20:21:13.766Z,95667.16
2022-08-19T20:23:42.043Z,95680.69
2022-08-19T20:26:10.348Z,95685.91
2022-08-19T20:28:58.388Z,95685.75
2022-08-19T20:31:37.295Z,95687.66
2022-08-19T20:34:24.819Z,95694.50
2022-08-19T20:36:53.474Z,95706.91
2022-08-19T20:39:21.755Z,95721.25
2022-08-19T20:41:50.154Z,95726.66
2022-08-19T20:44:18.904Z,95711.22
2022-08-19T20:46:55.622Z,95706.44
2022-08-19T20:49:27.719Z,95702.13
2022-08-19T20:51:56.814Z,95704.53
2022-08-19T20:54:25.314Z,95705.31
2022-08-19T20:56:53.584Z,95707.22
2022-08-19T20:59:21.897Z,95705.31
2022-08-19T21:01:51.806Z,95703.25
2022-08-19T21:04:21.513Z,95700.06
2022-08-19T21:06:51.286Z,95695.78
2022-08-19T21:09:19.575Z,95694.47
2022-08-19T21:11:47.781Z,95688.75
2022-08-19T21:14:16.049Z,95689.53
2022-08-19T21:16:44.756Z,95685.75
2022-08-19T21:19:13.103Z,95687.63
2022-08-19T21:21:41.371Z,95691.94
2022-08-19T21:24:11.022Z,95694.78
2022-08-19T21:26:39.339Z,95691.59
2022-08-19T21:29:07.711Z,95682.66
2022-08-19T21:31:36.319Z,95685.69
2022-08-19T21:34:05.411Z,95688.06
2022-08-19T21:36:33.661Z,95688.38
2022-08-19T21:39:01.888Z,95692.06
2022-08-19T21:41:31.670Z,95697.59
2022-08-19T21:43:59.949Z,95701.44
2022-08-19T21:46:28.516Z,95701.72
2022-08-19T21:48:56.864Z,95705.53
2022-08-19T21:51:25.110Z,95705.84
2022-08-19T21:53:53.781Z,95697.94
2022-08-19T21:56:22.453Z,95695.53
2022-08-19T21:58:55.597Z,95698.72
2022-08-19T22:01:23.958Z,95699.81
2022-08-19T22:03:52.213Z,95704.44
2022-08-19T22:06:23.203Z,95697.13
2022-08-19T22:08:51.418Z,95695.53
2022-08-19T22:11:19.885Z,95696.31
2022-08-19T22:13:48.180Z,95696.63
2022-08-19T22:16:18.280Z,95686.63
2022-08-19T22:18:46.448Z,95690.59
2022-08-19T22:21:14.767Z,95685.19
2022-08-19T22:23:48.467Z,95684.06
2022-08-19T22:26:17.419Z,95684.88
2022-08-19T22:28:45.709Z,95686.47
2022-08-19T22:31:15.727Z,95702.38
2022-08-19T22:33:45.784Z,95704.47
2022-08-19T22:36:14.285Z,95717.19
2022-08-19T22:38:42.844Z,95705.88
2022-08-19T22:41:11.719Z,95712.56
2022-08-19T22:43:40.182Z,95709.38
2022-08-19T22:46:17.155Z,95712.41
2022-08-19T22:48:47.668Z,95716.38
2022-08-19T22:51:33.414Z,95708.59
2022-08-19T22:54:01.823Z,95708.88
2022-08-19T22:56:31.007Z,95704.28
2022-08-19T22:58:59.874Z,95710.34
2022-08-19T23:01:30.652Z,95706.84
2022-08-19T23:04:03.693Z,95708.25
2022-08-19T23:06:33.856Z,95707.75
2022-08-19T23:09:04.554Z,95711.25
2022-08-19T23:11:38.110Z,95719.06
2022-08-19T23:14:11.320Z,95715.56
2022-08-19T23:16:39.545Z,95710.47
2022-08-19T23:19:11.760Z,95708.06
2022-08-19T23:21:40.034Z,95701.06
2022-08-19T23:24:08.639Z,95705.38
2022-08-19T23:26:36.990Z,95705.38
2022-08-19T23:29:23.784Z,95710.28
2022-08-19T23:31:52.046Z,95714.88
2022-08-19T23:34:21.963Z,95716.81
2022-08-19T23:36:50.557Z,95715.22
2022-08-19T23:39:19.422Z,95710.63
2022-08-19T23:41:47.748Z,95706.31
2022-08-19T23:44:16.119Z,95706.31
2022-08-19T23:46:55.073Z,95711.22
2022-08-19T23:49:26.259Z,95705.34
2022-08-19T23:51:55.715Z,95708.66
2022-08-19T23:54:29.736Z,95699.41
2022-08-19T23:57:13.444Z,95694.47
2022-08-19T23:59:45.323Z,95703.38
